Terminal Aerodrome Forecast
Issued by NWS Lubbock, TX

Home | Current Version | Previous Version | Text Only | Print | Product List | Glossary On
Versions: 1 2 3 4 5 6 7 8 9 10 11 12 13 14 15 16 17 18 19 20 21 22 23 24 25 26 27 28 29 30 31 32 33 34 35 36 37 38 39 40
000
FTUS44 KLUB 160500 RRA
TAFLBB
TAF
KLBB 160548Z 1606/1706 05005KT P6SM OVC060
      TEMPO 1612/1616 SHRA SCT015 OVC060
     FM161700 15010KT P6SM BKN050 OVC150 PROB30 1617/1623 -TSRA
      BKN040CB=

USA.gov is the U.S. government's official web portal to all federal, state and local government web resources and services.